sensor_id;sensor_type;location;lat;lon;timestamp;P1;durP1;ratioP1;P2;durP2;ratioP2
17494;SDS011;8864;51.970;4.614;2024-03-02T00:01:36;0.93;;;0.60;;
17494;SDS011;8864;51.970;4.614;2024-03-02T00:04:05;1.55;;;0.70;;
17494;SDS011;8864;51.970;4.614;2024-03-02T00:06:34;1.02;;;0.50;;
17494;SDS011;8864;51.970;4.614;2024-03-02T00:09:02;0.40;;;0.40;;
17494;SDS011;8864;51.970;4.614;2024-03-02T00:11:29;0.73;;;0.60;;
17494;SDS011;8864;51.970;4.614;2024-03-02T00:13:56;0.77;;;0.65;;
17494;SDS011;8864;51.970;4.614;2024-03-02T00:16:24;0.50;;;0.50;;
17494;SDS011;8864;51.970;4.614;2024-03-02T00:18:56;1.27;;;0.43;;
17494;SDS011;8864;51.970;4.614;2024-03-02T00:21:29;1.35;;;0.70;;
17494;SDS011;8864;51.970;4.614;2024-03-02T00:23:57;0.93;;;0.50;;
17494;SDS011;8864;51.970;4.614;2024-03-02T00:26:24;0.88;;;0.60;;
17494;SDS011;8864;51.970;4.614;2024-03-02T00:28:52;0.95;;;0.60;;
17494;SDS011;8864;51.970;4.614;2024-03-02T00:31:22;0.40;;;0.40;;
17494;SDS011;8864;51.970;4.614;2024-03-02T00:33:50;1.00;;;0.60;;
17494;SDS011;8864;51.970;4.614;2024-03-02T00:36:21;0.60;;;0.40;;
17494;SDS011;8864;51.970;4.614;2024-03-02T00:38:52;0.30;;;0.30;;
17494;SDS011;8864;51.970;4.614;2024-03-02T00:41:21;1.20;;;0.40;;
17494;SDS011;8864;51.970;4.614;2024-03-02T00:43:56;1.13;;;0.50;;
17494;SDS011;8864;51.970;4.614;2024-03-02T00:46:26;1.48;;;0.50;;
17494;SDS011;8864;51.970;4.614;2024-03-02T00:48:57;1.27;;;0.50;;
17494;SDS011;8864;51.970;4.614;2024-03-02T00:51:26;1.85;;;0.60;;
17494;SDS011;8864;51.970;4.614;2024-03-02T00:53:55;0.90;;;0.40;;
17494;SDS011;8864;51.970;4.614;2024-03-02T00:56:24;1.35;;;0.40;;
17494;SDS011;8864;51.970;4.614;2024-03-02T00:58:51;0.40;;;0.40;;
17494;SDS011;8864;51.970;4.614;2024-03-02T01:01:18;0.68;;;0.47;;
17494;SDS011;8864;51.970;4.614;2024-03-02T01:03:46;0.50;;;0.40;;
17494;SDS011;8864;51.970;4.614;2024-03-02T01:06:14;0.47;;;0.30;;
17494;SDS011;8864;51.970;4.614;2024-03-02T01:08:41;0.45;;;0.32;;
17494;SDS011;8864;51.970;4.614;2024-03-02T01:11:09;1.42;;;0.47;;
17494;SDS011;8864;51.970;4.614;2024-03-02T01:13:37;0.30;;;0.30;;
17494;SDS011;8864;51.970;4.614;2024-03-02T01:16:04;0.60;;;0.32;;
17494;SDS011;8864;51.970;4.614;2024-03-02T01:18:31;0.30;;;0.30;;
17494;SDS011;8864;51.970;4.614;2024-03-02T01:20:58;0.40;;;0.40;;
17494;SDS011;8864;51.970;4.614;2024-03-02T01:23:26;0.55;;;0.40;;
17494;SDS011;8864;51.970;4.614;2024-03-02T01:25:53;0.93;;;0.82;;
17494;SDS011;8864;51.970;4.614;2024-03-02T01:28:22;0.30;;;0.30;;
17494;SDS011;8864;51.970;4.614;2024-03-02T01:30:49;0.20;;;0.20;;
17494;SDS011;8864;51.970;4.614;2024-03-02T01:33:16;1.08;;;0.40;;
17494;SDS011;8864;51.970;4.614;2024-03-02T01:35:43;0.85;;;0.40;;
17494;SDS011;8864;51.970;4.614;2024-03-02T01:38:10;0.40;;;0.38;;
17494;SDS011;8864;51.970;4.614;2024-03-02T01:40:37;2.70;;;0.28;;
17494;SDS011;8864;51.970;4.614;2024-03-02T01:43:05;0.47;;;0.30;;
17494;SDS011;8864;51.970;4.614;2024-03-02T01:45:33;0.20;;;0.20;;
17494;SDS011;8864;51.970;4.614;2024-03-02T01:48:02;1.08;;;0.30;;
17494;SDS011;8864;51.970;4.614;2024-03-02T01:50:31;0.30;;;0.30;;
17494;SDS011;8864;51.970;4.614;2024-03-02T01:53:00;1.52;;;0.47;;
17494;SDS011;8864;51.970;4.614;2024-03-02T01:55:27;0.40;;;0.40;;
17494;SDS011;8864;51.970;4.614;2024-03-02T01:57:55;0.40;;;0.30;;
17494;SDS011;8864;51.970;4.614;2024-03-02T02:00:22;0.50;;;0.30;;
17494;SDS011;8864;51.970;4.614;2024-03-02T02:02:52;0.52;;;0.30;;
17494;SDS011;8864;51.970;4.614;2024-03-02T02:05:19;0.38;;;0.28;;
17494;SDS011;8864;51.970;4.614;2024-03-02T02:07:46;1.25;;;0.30;;
17494;SDS011;8864;51.970;4.614;2024-03-02T02:10:13;1.75;;;0.45;;
17494;SDS011;8864;51.970;4.614;2024-03-02T02:12:40;0.90;;;0.40;;
17494;SDS011;8864;51.970;4.614;2024-03-02T02:15:23;0.30;;;0.28;;
17494;SDS011;8864;51.970;4.614;2024-03-02T02:17:53;0.70;;;0.30;;
17494;SDS011;8864;51.970;4.614;2024-03-02T02:20:20;0.45;;;0.30;;
17494;SDS011;8864;51.970;4.614;2024-03-02T02:22:55;0.30;;;0.30;;
17494;SDS011;8864;51.970;4.614;2024-03-02T02:25:23;2.05;;;0.47;;
17494;SDS011;8864;51.970;4.614;2024-03-02T02:27:50;0.75;;;0.50;;
17494;SDS011;8864;51.970;4.614;2024-03-02T02:30:20;0.25;;;0.20;;
17494;SDS011;8864;51.970;4.614;2024-03-02T02:32:48;0.40;;;0.30;;
17494;SDS011;8864;51.970;4.614;2024-03-02T02:35:15;1.40;;;0.20;;
17494;SDS011;8864;51.970;4.614;2024-03-02T02:37:42;0.32;;;0.20;;
17494;SDS011;8864;51.970;4.614;2024-03-02T02:40:11;0.47;;;0.30;;
17494;SDS011;8864;51.970;4.614;2024-03-02T02:42:39;0.25;;;0.22;;
17494;SDS011;8864;51.970;4.614;2024-03-02T02:45:06;0.60;;;0.30;;
17494;SDS011;8864;51.970;4.614;2024-03-02T02:47:33;1.85;;;0.25;;
17494;SDS011;8864;51.970;4.614;2024-03-02T02:50:01;0.40;;;0.32;;
17494;SDS011;8864;51.970;4.614;2024-03-02T02:52:32;0.30;;;0.30;;
17494;SDS011;8864;51.970;4.614;2024-03-02T02:55:01;0.38;;;0.30;;
17494;SDS011;8864;51.970;4.614;2024-03-02T02:57:31;0.65;;;0.40;;
17494;SDS011;8864;51.970;4.614;2024-03-02T03:00:00;0.85;;;0.40;;
17494;SDS011;8864;51.970;4.614;2024-03-02T03:02:35;0.40;;;0.25;;
17494;SDS011;8864;51.970;4.614;2024-03-02T03:05:03;0.88;;;0.30;;
17494;SDS011;8864;51.970;4.614;2024-03-02T03:07:31;1.50;;;0.40;;
17494;SDS011;8864;51.970;4.614;2024-03-02T03:09:58;0.20;;;0.20;;
17494;SDS011;8864;51.970;4.614;2024-03-02T03:12:25;0.60;;;0.40;;
17494;SDS011;8864;51.970;4.614;2024-03-02T03:14:53;2.10;;;0.50;;
17494;SDS011;8864;51.970;4.614;2024-03-02T03:17:21;0.15;;;0.15;;
17494;SDS011;8864;51.970;4.614;2024-03-02T03:19:48;1.20;;;0.50;;
17494;SDS011;8864;51.970;4.614;2024-03-02T03:22:14;0.63;;;0.50;;
17494;SDS011;8864;51.970;4.614;2024-03-02T03:24:41;1.08;;;0.43;;
17494;SDS011;8864;51.970;4.614;2024-03-02T03:27:09;0.47;;;0.40;;
17494;SDS011;8864;51.970;4.614;2024-03-02T03:29:36;0.77;;;0.30;;
17494;SDS011;8864;51.970;4.614;2024-03-02T03:32:05;0.85;;;0.40;;
17494;SDS011;8864;51.970;4.614;2024-03-02T03:34:33;1.23;;;0.50;;
17494;SDS011;8864;51.970;4.614;2024-03-02T03:37:00;2.10;;;0.30;;
17494;SDS011;8864;51.970;4.614;2024-03-02T03:39:27;0.20;;;0.20;;
17494;SDS011;8864;51.970;4.614;2024-03-02T03:41:54;0.60;;;0.30;;
17494;SDS011;8864;51.970;4.614;2024-03-02T03:44:21;0.28;;;0.28;;
17494;SDS011;8864;51.970;4.614;2024-03-02T03:46:49;0.95;;;0.30;;
17494;SDS011;8864;51.970;4.614;2024-03-02T03:49:18;0.95;;;0.40;;
17494;SDS011;8864;51.970;4.614;2024-03-02T03:51:45;0.28;;;0.28;;
17494;SDS011;8864;51.970;4.614;2024-03-02T03:54:12;0.20;;;0.20;;
17494;SDS011;8864;51.970;4.614;2024-03-02T03:56:39;0.32;;;0.32;;
17494;SDS011;8864;51.970;4.614;2024-03-02T03:59:06;0.20;;;0.20;;
17494;SDS011;8864;51.970;4.614;2024-03-02T04:01:33;2.35;;;0.40;;
17494;SDS011;8864;51.970;4.614;2024-03-02T04:04:00;0.70;;;0.50;;
17494;SDS011;8864;51.970;4.614;2024-03-02T04:06:30;0.30;;;0.30;;
17494;SDS011;8864;51.970;4.614;2024-03-02T04:08:57;0.90;;;0.30;;
17494;SDS011;8864;51.970;4.614;2024-03-02T04:11:24;0.80;;;0.30;;
17494;SDS011;8864;51.970;4.614;2024-03-02T04:13:50;0.65;;;0.47;;
17494;SDS011;8864;51.970;4.614;2024-03-02T04:16:17;3.03;;;0.40;;
17494;SDS011;8864;51.970;4.614;2024-03-02T04:18:44;0.35;;;0.28;;
17494;SDS011;8864;51.970;4.614;2024-03-02T04:21:11;1.42;;;0.50;;
17494;SDS011;8864;51.970;4.614;2024-03-02T04:23:40;0.47;;;0.30;;
17494;SDS011;8864;51.970;4.614;2024-03-02T04:26:07;0.73;;;0.45;;
17494;SDS011;8864;51.970;4.614;2024-03-02T04:28:33;1.40;;;0.40;;
17494;SDS011;8864;51.970;4.614;2024-03-02T04:31:00;1.33;;;0.40;;
17494;SDS011;8864;51.970;4.614;2024-03-02T04:33:27;0.88;;;0.40;;
17494;SDS011;8864;51.970;4.614;2024-03-02T04:35:55;1.15;;;0.40;;
17494;SDS011;8864;51.970;4.614;2024-03-02T04:38:22;1.27;;;0.40;;
17494;SDS011;8864;51.970;4.614;2024-03-02T04:40:51;1.08;;;0.40;;
17494;SDS011;8864;51.970;4.614;2024-03-02T04:43:17;0.68;;;0.40;;
17494;SDS011;8864;51.970;4.614;2024-03-02T04:45:44;2.10;;;0.40;;
17494;SDS011;8864;51.970;4.614;2024-03-02T04:48:11;1.30;;;0.55;;
17494;SDS011;8864;51.970;4.614;2024-03-02T04:50:39;0.57;;;0.32;;
17494;SDS011;8864;51.970;4.614;2024-03-02T04:53:06;0.90;;;0.38;;
17494;SDS011;8864;51.970;4.614;2024-03-02T04:55:33;1.25;;;0.50;;
17494;SDS011;8864;51.970;4.614;2024-03-02T04:58:30;1.58;;;0.40;;
17494;SDS011;8864;51.970;4.614;2024-03-02T05:00:57;0.60;;;0.40;;
17494;SDS011;8864;51.970;4.614;2024-03-02T05:03:24;1.08;;;0.40;;
17494;SDS011;8864;51.970;4.614;2024-03-02T05:05:51;0.60;;;0.40;;
17494;SDS011;8864;51.970;4.614;2024-03-02T05:08:18;0.82;;;0.40;;
17494;SDS011;8864;51.970;4.614;2024-03-02T05:10:45;1.65;;;0.55;;
17494;SDS011;8864;51.970;4.614;2024-03-02T05:13:12;2.15;;;0.50;;
17494;SDS011;8864;51.970;4.614;2024-03-02T05:15:39;0.77;;;0.40;;
17494;SDS011;8864;51.970;4.614;2024-03-02T05:18:06;0.30;;;0.30;;
17494;SDS011;8864;51.970;4.614;2024-03-02T05:20:33;0.13;;;0.13;;
17494;SDS011;8864;51.970;4.614;2024-03-02T05:23:00;0.40;;;0.40;;
17494;SDS011;8864;51.970;4.614;2024-03-02T05:25:27;2.05;;;0.50;;
17494;SDS011;8864;51.970;4.614;2024-03-02T05:27:54;0.55;;;0.32;;
17494;SDS011;8864;51.970;4.614;2024-03-02T05:30:21;2.80;;;0.50;;
17494;SDS011;8864;51.970;4.614;2024-03-02T05:32:49;0.40;;;0.40;;
17494;SDS011;8864;51.970;4.614;2024-03-02T05:35:16;2.63;;;0.55;;
17494;SDS011;8864;51.970;4.614;2024-03-02T05:37:43;0.80;;;0.40;;
17494;SDS011;8864;51.970;4.614;2024-03-02T05:40:10;0.43;;;0.30;;
17494;SDS011;8864;51.970;4.614;2024-03-02T05:42:38;0.57;;;0.35;;
17494;SDS011;8864;51.970;4.614;2024-03-02T05:45:06;1.02;;;0.38;;
17494;SDS011;8864;51.970;4.614;2024-03-02T05:47:34;1.73;;;0.47;;
17494;SDS011;8864;51.970;4.614;2024-03-02T05:50:02;2.45;;;0.45;;
17494;SDS011;8864;51.970;4.614;2024-03-02T05:52:30;0.47;;;0.30;;
17494;SDS011;8864;51.970;4.614;2024-03-02T05:54:57;1.00;;;0.38;;
17494;SDS011;8864;51.970;4.614;2024-03-02T05:57:24;0.77;;;0.50;;
17494;SDS011;8864;51.970;4.614;2024-03-02T06:00:10;0.85;;;0.40;;
17494;SDS011;8864;51.970;4.614;2024-03-02T06:02:38;1.15;;;0.50;;
17494;SDS011;8864;51.970;4.614;2024-03-02T06:05:08;2.95;;;0.30;;
17494;SDS011;8864;51.970;4.614;2024-03-02T06:07:35;0.55;;;0.30;;
17494;SDS011;8864;51.970;4.614;2024-03-02T06:10:02;0.85;;;0.40;;
17494;SDS011;8864;51.970;4.614;2024-03-02T06:12:30;0.40;;;0.40;;
17494;SDS011;8864;51.970;4.614;2024-03-02T06:14:57;1.48;;;0.45;;
17494;SDS011;8864;51.970;4.614;2024-03-02T06:17:24;0.55;;;0.30;;
17494;SDS011;8864;51.970;4.614;2024-03-02T06:19:51;1.98;;;0.35;;
17494;SDS011;8864;51.970;4.614;2024-03-02T06:22:19;1.75;;;0.45;;
17494;SDS011;8864;51.970;4.614;2024-03-02T06:24:48;1.90;;;0.60;;
17494;SDS011;8864;51.970;4.614;2024-03-02T06:27:15;1.23;;;0.57;;
17494;SDS011;8864;51.970;4.614;2024-03-02T06:29:41;1.33;;;0.40;;
17494;SDS011;8864;51.970;4.614;2024-03-02T06:32:08;2.03;;;0.50;;
17494;SDS011;8864;51.970;4.614;2024-03-02T06:34:36;6.63;;;0.40;;
17494;SDS011;8864;51.970;4.614;2024-03-02T06:37:02;0.40;;;0.40;;
17494;SDS011;8864;51.970;4.614;2024-03-02T06:39:31;0.47;;;0.38;;
17494;SDS011;8864;51.970;4.614;2024-03-02T06:41:59;2.35;;;0.52;;
17494;SDS011;8864;51.970;4.614;2024-03-02T06:44:26;1.23;;;0.63;;
17494;SDS011;8864;51.970;4.614;2024-03-02T06:46:53;0.65;;;0.40;;
17494;SDS011;8864;51.970;4.614;2024-03-02T06:49:20;1.50;;;0.50;;
17494;SDS011;8864;51.970;4.614;2024-03-02T06:51:47;1.00;;;0.43;;
17494;SDS011;8864;51.970;4.614;2024-03-02T06:54:15;2.83;;;0.63;;
17494;SDS011;8864;51.970;4.614;2024-03-02T06:56:43;1.02;;;0.40;;
17494;SDS011;8864;51.970;4.614;2024-03-02T06:59:10;1.42;;;0.40;;
17494;SDS011;8864;51.970;4.614;2024-03-02T07:01:37;2.05;;;0.70;;
17494;SDS011;8864;51.970;4.614;2024-03-02T07:04:03;1.55;;;0.50;;
17494;SDS011;8864;51.970;4.614;2024-03-02T07:06:31;3.58;;;1.02;;
17494;SDS011;8864;51.970;4.614;2024-03-02T07:08:58;1.70;;;0.52;;
17494;SDS011;8864;51.970;4.614;2024-03-02T07:11:25;2.63;;;0.70;;
17494;SDS011;8864;51.970;4.614;2024-03-02T07:13:54;0.40;;;0.40;;
17494;SDS011;8864;51.970;4.614;2024-03-02T07:16:20;0.80;;;0.45;;
17494;SDS011;8864;51.970;4.614;2024-03-02T07:18:53;1.27;;;0.40;;
17494;SDS011;8864;51.970;4.614;2024-03-02T07:21:21;2.42;;;0.68;;
17494;SDS011;8864;51.970;4.614;2024-03-02T07:23:48;1.23;;;0.63;;
17494;SDS011;8864;51.970;4.614;2024-03-02T07:26:16;0.93;;;0.50;;
17494;SDS011;8864;51.970;4.614;2024-03-02T07:28:45;4.25;;;1.35;;
17494;SDS011;8864;51.970;4.614;2024-03-02T07:31:14;0.75;;;0.40;;
17494;SDS011;8864;51.970;4.614;2024-03-02T07:33:43;2.47;;;0.70;;
17494;SDS011;8864;51.970;4.614;2024-03-02T07:36:10;9.52;;;1.40;;
17494;SDS011;8864;51.970;4.614;2024-03-02T07:38:37;9.70;;;1.73;;
17494;SDS011;8864;51.970;4.614;2024-03-02T07:41:05;8.45;;;1.60;;
17494;SDS011;8864;51.970;4.614;2024-03-02T07:43:33;9.82;;;1.23;;
17494;SDS011;8864;51.970;4.614;2024-03-02T07:46:00;5.30;;;1.33;;
17494;SDS011;8864;51.970;4.614;2024-03-02T07:48:29;12.52;;;1.70;;
17494;SDS011;8864;51.970;4.614;2024-03-02T07:50:57;14.02;;;2.70;;
17494;SDS011;8864;51.970;4.614;2024-03-02T07:53:23;7.50;;;1.98;;
17494;SDS011;8864;51.970;4.614;2024-03-02T07:55:50;15.30;;;2.13;;
17494;SDS011;8864;51.970;4.614;2024-03-02T07:58:27;11.60;;;2.05;;
17494;SDS011;8864;51.970;4.614;2024-03-02T08:00:56;7.63;;;1.52;;
17494;SDS011;8864;51.970;4.614;2024-03-02T08:03:23;8.88;;;1.85;;
17494;SDS011;8864;51.970;4.614;2024-03-02T08:05:51;9.77;;;1.63;;
17494;SDS011;8864;51.970;4.614;2024-03-02T08:08:18;16.50;;;2.47;;
17494;SDS011;8864;51.970;4.614;2024-03-02T08:10:45;11.00;;;1.67;;
17494;SDS011;8864;51.970;4.614;2024-03-02T08:13:14;9.30;;;1.60;;
17494;SDS011;8864;51.970;4.614;2024-03-02T08:15:41;7.20;;;1.77;;
17494;SDS011;8864;51.970;4.614;2024-03-02T08:18:07;10.02;;;1.88;;
17494;SDS011;8864;51.970;4.614;2024-03-02T08:20:34;7.05;;;1.38;;
17494;SDS011;8864;51.970;4.614;2024-03-02T08:23:03;4.57;;;1.63;;
17494;SDS011;8864;51.970;4.614;2024-03-02T08:25:30;8.23;;;1.73;;
17494;SDS011;8864;51.970;4.614;2024-03-02T08:27:57;4.25;;;1.30;;
17494;SDS011;8864;51.970;4.614;2024-03-02T08:30:25;7.07;;;1.90;;
17494;SDS011;8864;51.970;4.614;2024-03-02T08:32:51;4.40;;;1.30;;
17494;SDS011;8864;51.970;4.614;2024-03-02T08:35:18;8.20;;;1.95;;
17494;SDS011;8864;51.970;4.614;2024-03-02T08:37:47;7.13;;;1.40;;
17494;SDS011;8864;51.970;4.614;2024-03-02T08:40:16;5.55;;;1.38;;
17494;SDS011;8864;51.970;4.614;2024-03-02T08:42:43;7.00;;;1.67;;
17494;SDS011;8864;51.970;4.614;2024-03-02T08:45:10;5.47;;;1.30;;
17494;SDS011;8864;51.970;4.614;2024-03-02T08:47:38;5.95;;;1.17;;
17494;SDS011;8864;51.970;4.614;2024-03-02T08:50:05;6.60;;;1.45;;
17494;SDS011;8864;51.970;4.614;2024-03-02T08:52:33;3.70;;;1.08;;
17494;SDS011;8864;51.970;4.614;2024-03-02T08:55:00;4.60;;;1.17;;
17494;SDS011;8864;51.970;4.614;2024-03-02T08:57:29;4.07;;;1.00;;
17494;SDS011;8864;51.970;4.614;2024-03-02T08:59:56;3.58;;;0.93;;
17494;SDS011;8864;51.970;4.614;2024-03-02T09:02:23;2.97;;;0.85;;
17494;SDS011;8864;51.970;4.614;2024-03-02T09:04:50;2.95;;;0.80;;
17494;SDS011;8864;51.970;4.614;2024-03-02T09:07:18;2.92;;;0.80;;
17494;SDS011;8864;51.970;4.614;2024-03-02T09:09:45;3.30;;;1.30;;
17494;SDS011;8864;51.970;4.614;2024-03-02T09:12:12;5.45;;;1.23;;
17494;SDS011;8864;51.970;4.614;2024-03-02T09:14:41;1.95;;;1.00;;
17494;SDS011;8864;51.970;4.614;2024-03-02T09:17:08;2.22;;;0.90;;
17494;SDS011;8864;51.970;4.614;2024-03-02T09:19:36;2.13;;;0.80;;
17494;SDS011;8864;51.970;4.614;2024-03-02T09:22:03;1.58;;;0.65;;
17494;SDS011;8864;51.970;4.614;2024-03-02T09:24:31;5.03;;;0.80;;
17494;SDS011;8864;51.970;4.614;2024-03-02T09:26:58;3.22;;;0.80;;
17494;SDS011;8864;51.970;4.614;2024-03-02T09:29:25;5.18;;;1.15;;
17494;SDS011;8864;51.970;4.614;2024-03-02T09:31:53;1.42;;;0.65;;
17494;SDS011;8864;51.970;4.614;2024-03-02T09:34:20;2.20;;;0.82;;
17494;SDS011;8864;51.970;4.614;2024-03-02T09:36:47;3.15;;;0.85;;
17494;SDS011;8864;51.970;4.614;2024-03-02T09:39:16;2.47;;;0.70;;
17494;SDS011;8864;51.970;4.614;2024-03-02T09:41:43;4.03;;;1.00;;
17494;SDS011;8864;51.970;4.614;2024-03-02T09:44:10;2.92;;;1.02;;
17494;SDS011;8864;51.970;4.614;2024-03-02T09:46:37;4.63;;;0.60;;
17494;SDS011;8864;51.970;4.614;2024-03-02T09:49:06;1.55;;;0.75;;
17494;SDS011;8864;51.970;4.614;2024-03-02T09:51:33;2.90;;;0.80;;
17494;SDS011;8864;51.970;4.614;2024-03-02T09:54:00;3.10;;;0.82;;
17494;SDS011;8864;51.970;4.614;2024-03-02T09:56:27;2.15;;;0.70;;
17494;SDS011;8864;51.970;4.614;2024-03-02T09:58:54;2.15;;;0.70;;
17494;SDS011;8864;51.970;4.614;2024-03-02T10:01:21;2.47;;;0.75;;
17494;SDS011;8864;51.970;4.614;2024-03-02T10:03:48;2.17;;;0.68;;
17494;SDS011;8864;51.970;4.614;2024-03-02T10:06:23;2.72;;;0.60;;
17494;SDS011;8864;51.970;4.614;2024-03-02T10:08:51;0.90;;;0.60;;
17494;SDS011;8864;51.970;4.614;2024-03-02T10:11:27;2.42;;;0.63;;
17494;SDS011;8864;51.970;4.614;2024-03-02T10:14:05;3.45;;;0.80;;
17494;SDS011;8864;51.970;4.614;2024-03-02T10:16:34;4.22;;;0.80;;
17494;SDS011;8864;51.970;4.614;2024-03-02T10:19:15;3.50;;;0.80;;
17494;SDS011;8864;51.970;4.614;2024-03-02T10:21:45;1.02;;;0.57;;
17494;SDS011;8864;51.970;4.614;2024-03-02T10:24:13;1.60;;;0.75;;
17494;SDS011;8864;51.970;4.614;2024-03-02T10:26:40;1.75;;;0.70;;
17494;SDS011;8864;51.970;4.614;2024-03-02T10:29:08;5.88;;;0.60;;
17494;SDS011;8864;51.970;4.614;2024-03-02T10:31:36;2.38;;;0.65;;
17494;SDS011;8864;51.970;4.614;2024-03-02T10:34:04;3.03;;;0.73;;
17494;SDS011;8864;51.970;4.614;2024-03-02T10:36:32;2.15;;;0.60;;
17494;SDS011;8864;51.970;4.614;2024-03-02T10:39:02;1.15;;;0.60;;
17494;SDS011;8864;51.970;4.614;2024-03-02T10:41:31;2.55;;;0.68;;
17494;SDS011;8864;51.970;4.614;2024-03-02T10:44:01;4.00;;;0.88;;
17494;SDS011;8864;51.970;4.614;2024-03-02T10:46:30;4.82;;;0.82;;
17494;SDS011;8864;51.970;4.614;2024-03-02T10:48:58;1.98;;;0.60;;
17494;SDS011;8864;51.970;4.614;2024-03-02T10:51:27;1.38;;;0.47;;
17494;SDS011;8864;51.970;4.614;2024-03-02T10:53:56;1.05;;;0.63;;
17494;SDS011;8864;51.970;4.614;2024-03-02T10:56:28;1.15;;;0.70;;
17494;SDS011;8864;51.970;4.614;2024-03-02T10:59:01;2.55;;;0.63;;
17494;SDS011;8864;51.970;4.614;2024-03-02T11:01:30;2.22;;;0.70;;
17494;SDS011;8864;51.970;4.614;2024-03-02T11:03:59;2.80;;;0.70;;
17494;SDS011;8864;51.970;4.614;2024-03-02T11:06:28;1.15;;;0.50;;
17494;SDS011;8864;51.970;4.614;2024-03-02T11:08:58;2.88;;;0.70;;
17494;SDS011;8864;51.970;4.614;2024-03-02T11:11:32;1.55;;;0.68;;
17494;SDS011;8864;51.970;4.614;2024-03-02T11:14:02;1.63;;;0.60;;
17494;SDS011;8864;51.970;4.614;2024-03-02T11:16:35;2.28;;;0.70;;
17494;SDS011;8864;51.970;4.614;2024-03-02T11:19:04;2.53;;;0.70;;
17494;SDS011;8864;51.970;4.614;2024-03-02T11:21:32;3.55;;;0.70;;
17494;SDS011;8864;51.970;4.614;2024-03-02T11:23:59;2.72;;;0.65;;
17494;SDS011;8864;51.970;4.614;2024-03-02T11:26:28;4.32;;;0.70;;
17494;SDS011;8864;51.970;4.614;2024-03-02T11:28:56;4.82;;;1.05;;
17494;SDS011;8864;51.970;4.614;2024-03-02T11:34:28;3.30;;;0.80;;
17494;SDS011;8864;51.970;4.614;2024-03-02T11:36:56;3.95;;;0.80;;
17494;SDS011;8864;51.970;4.614;2024-03-02T11:39:24;2.67;;;0.68;;
17494;SDS011;8864;51.970;4.614;2024-03-02T11:41:51;1.67;;;0.70;;
17494;SDS011;8864;51.970;4.614;2024-03-02T11:44:19;3.47;;;0.93;;
17494;SDS011;8864;51.970;4.614;2024-03-02T11:46:46;1.77;;;0.68;;
17494;SDS011;8864;51.970;4.614;2024-03-02T11:49:20;4.32;;;0.80;;
17494;SDS011;8864;51.970;4.614;2024-03-02T11:52:04;2.78;;;0.80;;
17494;SDS011;8864;51.970;4.614;2024-03-02T11:54:32;6.10;;;0.80;;
17494;SDS011;8864;51.970;4.614;2024-03-02T11:57:01;7.80;;;0.88;;
17494;SDS011;8864;51.970;4.614;2024-03-02T11:59:30;4.10;;;0.77;;
17494;SDS011;8864;51.970;4.614;2024-03-02T12:01:57;5.93;;;1.00;;
17494;SDS011;8864;51.970;4.614;2024-03-02T12:04:26;4.40;;;0.75;;
17494;SDS011;8864;51.970;4.614;2024-03-02T12:06:54;2.80;;;0.80;;
17494;SDS011;8864;51.970;4.614;2024-03-02T12:09:24;5.70;;;0.80;;
17494;SDS011;8864;51.970;4.614;2024-03-02T12:12:01;3.03;;;0.63;;
17494;SDS011;8864;51.970;4.614;2024-03-02T12:14:30;4.07;;;0.88;;
17494;SDS011;8864;51.970;4.614;2024-03-02T12:16:58;4.03;;;0.85;;
17494;SDS011;8864;51.970;4.614;2024-03-02T12:19:25;3.15;;;1.00;;
17494;SDS011;8864;51.970;4.614;2024-03-02T12:21:52;3.83;;;0.80;;
17494;SDS011;8864;51.970;4.614;2024-03-02T12:24:20;4.45;;;0.88;;
17494;SDS011;8864;51.970;4.614;2024-03-02T12:26:47;6.18;;;1.25;;
17494;SDS011;8864;51.970;4.614;2024-03-02T12:29:15;3.65;;;0.90;;
17494;SDS011;8864;51.970;4.614;2024-03-02T12:31:43;3.40;;;0.80;;
17494;SDS011;8864;51.970;4.614;2024-03-02T12:34:11;3.83;;;0.93;;
17494;SDS011;8864;51.970;4.614;2024-03-02T12:36:39;4.65;;;0.90;;
17494;SDS011;8864;51.970;4.614;2024-03-02T12:39:07;4.10;;;1.02;;
17494;SDS011;8864;51.970;4.614;2024-03-02T12:41:35;2.85;;;0.90;;
17494;SDS011;8864;51.970;4.614;2024-03-02T12:44:03;4.20;;;0.60;;
17494;SDS011;8864;51.970;4.614;2024-03-02T12:46:30;6.63;;;0.88;;
17494;SDS011;8864;51.970;4.614;2024-03-02T12:49:04;3.30;;;0.68;;
17494;SDS011;8864;51.970;4.614;2024-03-02T12:51:35;1.92;;;0.50;;
17494;SDS011;8864;51.970;4.614;2024-03-02T12:54:02;2.35;;;0.90;;
17494;SDS011;8864;51.970;4.614;2024-03-02T12:56:30;4.07;;;0.88;;
17494;SDS011;8864;51.970;4.614;2024-03-02T12:58:58;1.60;;;0.65;;
17494;SDS011;8864;51.970;4.614;2024-03-02T13:01:26;3.03;;;0.80;;
17494;SDS011;8864;51.970;4.614;2024-03-02T13:03:53;4.40;;;1.00;;
17494;SDS011;8864;51.970;4.614;2024-03-02T13:06:22;2.20;;;0.80;;
17494;SDS011;8864;51.970;4.614;2024-03-02T13:08:52;2.20;;;0.75;;
17494;SDS011;8864;51.970;4.614;2024-03-02T13:11:20;3.13;;;0.75;;
17494;SDS011;8864;51.970;4.614;2024-03-02T13:13:48;3.22;;;0.63;;
17494;SDS011;8864;51.970;4.614;2024-03-02T13:16:16;5.45;;;1.02;;
17494;SDS011;8864;51.970;4.614;2024-03-02T13:18:45;2.05;;;0.77;;
17494;SDS011;8864;51.970;4.614;2024-03-02T13:21:12;1.73;;;0.75;;
17494;SDS011;8864;51.970;4.614;2024-03-02T13:23:41;5.53;;;0.80;;
17494;SDS011;8864;51.970;4.614;2024-03-02T13:26:07;6.38;;;1.50;;
17494;SDS011;8864;51.970;4.614;2024-03-02T13:28:37;3.88;;;0.95;;
17494;SDS011;8864;51.970;4.614;2024-03-02T13:31:04;2.03;;;0.70;;
17494;SDS011;8864;51.970;4.614;2024-03-02T13:33:32;2.85;;;1.00;;
17494;SDS011;8864;51.970;4.614;2024-03-02T13:35:59;1.58;;;0.70;;
17494;SDS011;8864;51.970;4.614;2024-03-02T13:38:28;3.03;;;0.85;;
17494;SDS011;8864;51.970;4.614;2024-03-02T13:40:56;1.95;;;0.70;;
17494;SDS011;8864;51.970;4.614;2024-03-02T13:43:23;1.08;;;0.63;;
17494;SDS011;8864;51.970;4.614;2024-03-02T13:45:51;2.92;;;0.70;;
17494;SDS011;8864;51.970;4.614;2024-03-02T13:48:18;4.57;;;0.82;;
17494;SDS011;8864;51.970;4.614;2024-03-02T13:50:46;2.53;;;0.95;;
17494;SDS011;8864;51.970;4.614;2024-03-02T13:53:13;2.72;;;0.85;;
17494;SDS011;8864;51.970;4.614;2024-03-02T13:55:40;1.95;;;0.65;;
17494;SDS011;8864;51.970;4.614;2024-03-02T13:58:09;3.40;;;0.80;;
17494;SDS011;8864;51.970;4.614;2024-03-02T14:00:37;3.15;;;0.98;;
17494;SDS011;8864;51.970;4.614;2024-03-02T14:03:06;2.47;;;0.77;;
17494;SDS011;8864;51.970;4.614;2024-03-02T14:05:33;3.10;;;0.77;;
17494;SDS011;8864;51.970;4.614;2024-03-02T14:08:00;4.38;;;1.02;;
17494;SDS011;8864;51.970;4.614;2024-03-02T14:10:27;1.98;;;0.93;;
17494;SDS011;8864;51.970;4.614;2024-03-02T14:12:54;4.43;;;0.95;;
17494;SDS011;8864;51.970;4.614;2024-03-02T14:15:23;2.67;;;0.80;;
17494;SDS011;8864;51.970;4.614;2024-03-02T14:17:50;3.47;;;0.63;;
17494;SDS011;8864;51.970;4.614;2024-03-02T14:20:17;1.60;;;0.68;;
17494;SDS011;8864;51.970;4.614;2024-03-02T14:22:47;3.22;;;0.80;;
17494;SDS011;8864;51.970;4.614;2024-03-02T14:25:14;3.65;;;0.80;;
17494;SDS011;8864;51.970;4.614;2024-03-02T14:27:41;3.72;;;1.13;;
17494;SDS011;8864;51.970;4.614;2024-03-02T14:30:08;1.67;;;0.82;;
17494;SDS011;8864;51.970;4.614;2024-03-02T14:32:38;2.90;;;1.08;;
17494;SDS011;8864;51.970;4.614;2024-03-02T14:35:05;2.30;;;0.75;;
17494;SDS011;8864;51.970;4.614;2024-03-02T14:37:35;2.72;;;0.80;;
17494;SDS011;8864;51.970;4.614;2024-03-02T14:40:02;2.38;;;0.73;;
17494;SDS011;8864;51.970;4.614;2024-03-02T14:42:31;1.45;;;0.70;;
17494;SDS011;8864;51.970;4.614;2024-03-02T14:44:59;2.58;;;0.70;;
17494;SDS011;8864;51.970;4.614;2024-03-02T14:47:27;3.22;;;0.80;;
17494;SDS011;8864;51.970;4.614;2024-03-02T14:49:56;3.28;;;0.90;;
17494;SDS011;8864;51.970;4.614;2024-03-02T14:52:24;3.25;;;0.90;;
17494;SDS011;8864;51.970;4.614;2024-03-02T14:54:51;1.85;;;0.50;;
17494;SDS011;8864;51.970;4.614;2024-03-02T14:57:17;1.75;;;0.70;;
17494;SDS011;8864;51.970;4.614;2024-03-02T14:59:44;3.55;;;0.68;;
17494;SDS011;8864;51.970;4.614;2024-03-02T15:02:11;5.88;;;0.70;;
17494;SDS011;8864;51.970;4.614;2024-03-02T15:04:38;2.60;;;0.80;;
17494;SDS011;8864;51.970;4.614;2024-03-02T15:07:07;1.67;;;0.60;;
17494;SDS011;8864;51.970;4.614;2024-03-02T15:09:34;3.55;;;0.80;;